PWSweather.com
Personal Weather Stations
Station Observations
UISISLE1
Newport, Isle ofWight, ISLE OF WIGHT PO30 2JX

NewportIsle ofWight, ISLE OF WIGHT PO30 2JX

Lat: 50.72, Lon: -1.27

Elevation: 45

Station Type: Davis Vantage Pro Plus

http://www.isleofwightweather.co.uk

High Low Average
Temperature 72.4°F22.4°C 46.6°F8.1°C 60.3°F15.7°C
Dew Point 57.5°F14.2°C 43.8°F6.6°C 51.9°F11.1°C
Winds 8.1 mph 13.0 kmh Calm Calm 3.0 mph SW4.8 kmh SW
Wind Gusts 13.4 mph21.6 kmh -- 5.0 mph8.0 kmh
Humidity 95% 49% 76%
Pressure 30.13 in1020.3 mb 29.98 in1015.2 mb -
Precipitation 0.00 in0.0 mm - -
Hour Temp Dew Point Humidity Winds Wind Gusts Pressure Precip Precip Rate Daily Precip Total
12:00 AM 53.2°F11.8°C 49.1°F9.5°C 86% Calm Calm -- 30.12 in1020.0 mb - 0.00 in0.0 mm 0.00 in0.0 mm
12:15 AM 52.8°F11.6°C 49.0°F9.4°C 87% Calm Calm -- 30.12 in1020.0 mb - 0.00 in0.0 mm 0.00 in0.0 mm
12:30 AM 52.2°F11.2°C 48.5°F9.2°C 87% Calm Calm -- 30.11 in1019.6 mb - 0.00 in0.0 mm 0.00 in0.0 mm
12:45 AM 51.7°F10.9°C 48.0°F8.9°C 87% 0.5 mph SW0.8 kmh SW 2.0 mph3.2 kmh 30.11 in1019.6 mb - 0.00 in0.0 mm 0.00 in0.0 mm
01:00 AM 51.2°F10.7°C 47.5°F8.6°C 87% Calm Calm -- 30.11 in1019.6 mb - 0.00 in0.0 mm 0.00 in0.0 mm
01:15 AM 50.9°F10.5°C 47.4°F8.6°C 88% Calm Calm 1.0 mph1.6 kmh 30.12 in1020.0 mb - 0.00 in0.0 mm 0.00 in0.0 mm
01:30 AM 50.6°F10.3°C 47.2°F8.4°C 88% Calm Calm -- 30.12 in1020.0 mb - 0.00 in0.0 mm 0.00 in0.0 mm
01:45 AM 50.2°F10.1°C 46.8°F8.2°C 88% Calm Calm -- 30.11 in1019.6 mb - 0.00 in0.0 mm 0.00 in0.0 mm
02:00 AM 49.7°F9.8°C 46.2°F7.9°C 88% Calm Calm -- 30.11 in1019.6 mb - 0.00 in0.0 mm 0.00 in0.0 mm
02:15 AM 49.1°F9.5°C 45.7°F7.6°C 88% Calm Calm -- 30.11 in1019.6 mb - 0.00 in0.0 mm 0.00 in0.0 mm
02:30 AM 48.8°F9.3°C 45.4°F7.4°C 88% Calm Calm -- 30.11 in1019.6 mb - 0.00 in0.0 mm 0.00 in0.0 mm
02:45 AM 48.4°F9.1°C 45.3°F7.4°C 89% Calm Calm -- 30.11 in1019.6 mb - 0.00 in0.0 mm 0.00 in0.0 mm
03:00 AM 48.1°F8.9°C 45.0°F7.2°C 89% Calm Calm -- 30.11 in1019.6 mb - 0.00 in0.0 mm 0.00 in0.0 mm
03:15 AM 47.8°F8.8°C 44.7°F7.1°C 89% Calm Calm -- 30.11 in1019.6 mb - 0.00 in0.0 mm 0.00 in0.0 mm
03:30 AM 47.6°F8.7°C 44.8°F7.1°C 90% Calm Calm -- 30.11 in1019.6 mb - 0.00 in0.0 mm 0.00 in0.0 mm
03:45 AM 47.4°F8.6°C 44.6°F7.0°C 90% Calm Calm -- 30.11 in1019.6 mb - 0.00 in0.0 mm 0.00 in0.0 mm
04:00 AM 47.2°F8.4°C 44.4°F6.9°C 90% Calm Calm -- 30.11 in1019.6 mb - 0.00 in0.0 mm 0.00 in0.0 mm
04:15 AM 46.9°F8.3°C 44.1°F6.7°C 90% Calm Calm -- 30.12 in1020.0 mb - 0.00 in0.0 mm 0.00 in0.0 mm
04:30 AM 46.8°F8.2°C 44.0°F6.7°C 90% Calm Calm -- 30.11 in1019.6 mb - 0.00 in0.0 mm 0.00 in0.0 mm
04:45 AM 46.6°F8.1°C 43.8°F6.6°C 90% Calm Calm -- 30.11 in1019.6 mb - 0.00 in0.0 mm 0.00 in0.0 mm
05:00 AM 46.7°F8.2°C 44.2°F6.8°C 91% Calm Calm -- 30.12 in1020.0 mb - 0.00 in0.0 mm 0.00 in0.0 mm
05:15 AM 47.0°F8.3°C 44.5°F6.9°C 91% Calm Calm -- 30.12 in1020.0 mb - 0.00 in0.0 mm 0.00 in0.0 mm
05:30 AM 47.7°F8.7°C 45.5°F7.5°C 92% Calm Calm -- 30.13 in1020.3 mb - 0.00 in0.0 mm 0.00 in0.0 mm
05:45 AM 48.4°F9.1°C 46.5°F8.1°C 93% Calm Calm -- 30.13 in1020.3 mb - 0.00 in0.0 mm 0.00 in0.0 mm
06:00 AM 49.2°F9.6°C 47.3°F8.5°C 93% Calm Calm -- 30.12 in1020.0 mb - 0.00 in0.0 mm 0.00 in0.0 mm
06:15 AM 50.3°F10.2°C 48.6°F9.2°C 94% Calm Calm -- 30.12 in1020.0 mb - 0.00 in0.0 mm 0.00 in0.0 mm
06:30 AM 51.8°F11.0°C 50.4°F10.2°C 95% Calm Calm -- 30.12 in1020.0 mb - 0.00 in0.0 mm 0.00 in0.0 mm
06:45 AM 53.2°F11.8°C 51.9°F11.1°C 95% Calm Calm 2.1 mph3.4 kmh 30.12 in1020.0 mb - 0.00 in0.0 mm 0.00 in0.0 mm
07:00 AM 54.0°F12.2°C 52.6°F11.4°C 95% 0.3 mph ENE0.5 kmh ENE 2.0 mph3.2 kmh 30.12 in1020.0 mb - 0.00 in0.0 mm 0.00 in0.0 mm
07:15 AM 54.5°F12.5°C 53.1°F11.7°C 95% 0.6 mph E1.0 kmh E 3.0 mph4.8 kmh 30.12 in1020.0 mb - 0.00 in0.0 mm 0.00 in0.0 mm
07:30 AM 55.0°F12.8°C 53.3°F11.8°C 94% 0.2 mph SE0.3 kmh SE 2.0 mph3.2 kmh 30.12 in1020.0 mb - 0.00 in0.0 mm 0.00 in0.0 mm
07:45 AM 56.5°F13.6°C 54.8°F12.7°C 94% 0.4 mph S0.6 kmh S 1.0 mph1.6 kmh 30.12 in1020.0 mb - 0.00 in0.0 mm 0.00 in0.0 mm
08:00 AM 58.7°F14.8°C 55.7°F13.2°C 90% 0.9 mph SE1.4 kmh SE 2.0 mph3.2 kmh 30.12 in1020.0 mb - 0.00 in0.0 mm 0.00 in0.0 mm
08:15 AM 61.7°F16.5°C 56.4°F13.6°C 83% 0.8 mph ENE1.3 kmh ENE 5.0 mph8.0 kmh 30.11 in1019.6 mb - 0.00 in0.0 mm 0.00 in0.0 mm
08:30 AM 64.4°F18.0°C 55.5°F13.1°C 73% 0.9 mph SSW1.4 kmh SSW 1.0 mph1.6 kmh 30.11 in1019.6 mb - 0.00 in0.0 mm 0.00 in0.0 mm
08:45 AM 66.0°F18.9°C 55.1°F12.8°C 68% 1.8 mph SW2.9 kmh SW 3.0 mph4.8 kmh 30.11 in1019.6 mb - 0.00 in0.0 mm 0.00 in0.0 mm
09:00 AM 67.4°F19.7°C 54.3°F12.4°C 63% Calm Calm -- 30.11 in1019.6 mb - 0.00 in0.0 mm 0.00 in0.0 mm
09:15 AM 69.4°F20.8°C 54.9°F12.7°C 60% 1.9 mph SW3.1 kmh SW 4.0 mph6.4 kmh 30.12 in1020.0 mb - 0.00 in0.0 mm 0.00 in0.0 mm
09:30 AM 70.5°F21.4°C 53.6°F12.0°C 55% 3.2 mph SW5.1 kmh SW 4.0 mph6.4 kmh 30.12 in1020.0 mb - 0.00 in0.0 mm 0.00 in0.0 mm
09:45 AM 71.4°F21.9°C 54.4°F12.4°C 55% 0.2 mph S0.3 kmh S 2.0 mph3.2 kmh 30.11 in1019.6 mb - 0.00 in0.0 mm 0.00 in0.0 mm
10:00 AM 71.7°F22.1°C 57.1°F13.9°C 60% 3.2 mph SW5.1 kmh SW 5.0 mph8.0 kmh 30.11 in1019.6 mb - 0.00 in0.0 mm 0.00 in0.0 mm
10:15 AM 71.7°F22.1°C 57.5°F14.2°C 61% 5.1 mph ESE8.2 kmh ESE 7.0 mph11.3 kmh 30.11 in1019.6 mb - 0.00 in0.0 mm 0.00 in0.0 mm
10:30 AM 72.4°F22.4°C 57.3°F14.1°C 59% 6.5 mph S10.5 kmh S 8.0 mph12.9 kmh 30.12 in1020.0 mb - 0.00 in0.0 mm 0.00 in0.0 mm
10:45 AM 72.0°F22.2°C 56.0°F13.3°C 57% 5.5 mph SW8.9 kmh SW 13.4 mph21.6 kmh 30.12 in1020.0 mb - 0.00 in0.0 mm 0.00 in0.0 mm
11:00 AM 71.8°F22.1°C 55.8°F13.2°C 57% 2.2 mph WSW3.5 kmh WSW 7.0 mph11.3 kmh 30.12 in1020.0 mb - 0.00 in0.0 mm 0.00 in0.0 mm
11:15 AM 72.2°F22.3°C 53.1°F11.7°C 51% 4.2 mph S6.8 kmh S 6.0 mph9.7 kmh 30.12 in1020.0 mb - 0.00 in0.0 mm 0.00 in0.0 mm
11:30 AM 72.3°F22.4°C 53.2°F11.8°C 51% 5.0 mph SW8.0 kmh SW 8.0 mph12.9 kmh 30.12 in1020.0 mb - 0.00 in0.0 mm 0.00 in0.0 mm
11:45 AM 72.3°F22.4°C 54.2°F12.3°C 53% 5.6 mph SW9.0 kmh SW 11.0 mph17.7 kmh 30.11 in1019.6 mb - 0.00 in0.0 mm 0.00 in0.0 mm
12:00 PM 72.3°F22.4°C 54.2°F12.3°C 53% 4.9 mph SSW7.9 kmh SSW 12.0 mph19.3 kmh 30.10 in1019.3 mb - 0.00 in0.0 mm 0.00 in0.0 mm
12:15 PM 71.6°F22.0°C 53.0°F11.7°C 52% 4.8 mph SW7.7 kmh SW 9.0 mph14.5 kmh 30.10 in1019.3 mb - 0.00 in0.0 mm 0.00 in0.0 mm
12:30 PM 71.3°F21.8°C 52.8°F11.6°C 52% 5.9 mph S9.5 kmh S 8.0 mph12.9 kmh 30.10 in1019.3 mb - 0.00 in0.0 mm 0.00 in0.0 mm
12:45 PM 71.2°F21.8°C 53.2°F11.8°C 53% 3.9 mph SW6.3 kmh SW 6.0 mph9.7 kmh 30.10 in1019.3 mb - 0.00 in0.0 mm 0.00 in0.0 mm
01:00 PM 71.4°F21.9°C 53.4°F11.9°C 53% 6.1 mph SSW9.8 kmh SSW 10.0 mph16.1 kmh 30.10 in1019.3 mb - 0.00 in0.0 mm 0.00 in0.0 mm
01:15 PM 71.8°F22.1°C 52.7°F11.5°C 51% 5.4 mph WSW8.7 kmh WSW 9.0 mph14.5 kmh 30.10 in1019.3 mb - 0.00 in0.0 mm 0.00 in0.0 mm
01:30 PM 72.3°F22.4°C 53.2°F11.8°C 51% 5.0 mph SW8.0 kmh SW 9.0 mph14.5 kmh 30.10 in1019.3 mb - 0.00 in0.0 mm 0.00 in0.0 mm
01:45 PM 72.1°F22.3°C 53.0°F11.7°C 51% 3.9 mph SW6.3 kmh SW 7.0 mph11.3 kmh 30.09 in1019.0 mb - 0.00 in0.0 mm 0.00 in0.0 mm
02:00 PM 71.7°F22.1°C 52.6°F11.4°C 51% 6.1 mph SW9.8 kmh SW 7.0 mph11.3 kmh 30.08 in1018.6 mb - 0.00 in0.0 mm 0.00 in0.0 mm
02:15 PM 71.7°F22.1°C 54.2°F12.3°C 54% 3.8 mph SW6.1 kmh SW 7.0 mph11.3 kmh 30.07 in1018.3 mb - 0.00 in0.0 mm 0.00 in0.0 mm
02:30 PM 72.2°F22.3°C 53.6°F12.0°C 52% 5.1 mph SE8.2 kmh SE 9.0 mph14.5 kmh 30.07 in1018.3 mb - 0.00 in0.0 mm 0.00 in0.0 mm
02:45 PM 72.3°F22.4°C 53.2°F11.8°C 51% 5.2 mph SW8.4 kmh SW 9.0 mph14.5 kmh 30.07 in1018.3 mb - 0.00 in0.0 mm 0.00 in0.0 mm
03:00 PM 72.1°F22.3°C 51.9°F11.1°C 49% 6.3 mph SW10.1 kmh SW 11.0 mph17.7 kmh 30.07 in1018.3 mb - 0.00 in0.0 mm 0.00 in0.0 mm
03:15 PM 71.7°F22.1°C 51.6°F10.9°C 49% 5.3 mph WSW8.5 kmh WSW 8.0 mph12.9 kmh 30.07 in1018.3 mb - 0.00 in0.0 mm 0.00 in0.0 mm
03:30 PM 70.4°F21.3°C 50.8°F10.4°C 50% 5.2 mph SW8.4 kmh SW 9.0 mph14.5 kmh 30.07 in1018.3 mb - 0.00 in0.0 mm 0.00 in0.0 mm
03:45 PM 69.4°F20.8°C 52.0°F11.1°C 54% 2.4 mph SSW3.9 kmh SSW 3.0 mph4.8 kmh 30.06 in1017.9 mb - 0.00 in0.0 mm 0.00 in0.0 mm
04:00 PM 68.4°F20.2°C 52.1°F11.2°C 56% 4.6 mph SSW7.4 kmh SSW 7.0 mph11.3 kmh 30.06 in1017.9 mb - 0.00 in0.0 mm 0.00 in0.0 mm
04:15 PM 67.5°F19.7°C 52.7°F11.5°C 59% 4.8 mph SSW7.7 kmh SSW 9.0 mph14.5 kmh 30.06 in1017.9 mb - 0.00 in0.0 mm 0.00 in0.0 mm
04:30 PM 66.4°F19.1°C 53.0°F11.7°C 62% 3.3 mph SSE5.3 kmh SSE 6.0 mph9.7 kmh 30.05 in1017.6 mb - 0.00 in0.0 mm 0.00 in0.0 mm
04:45 PM 65.5°F18.6°C 53.0°F11.7°C 64% 5.3 mph SSW8.5 kmh SSW 7.0 mph11.3 kmh 30.05 in1017.6 mb - 0.00 in0.0 mm 0.00 in0.0 mm
05:00 PM 65.1°F18.4°C 53.9°F12.2°C 67% 5.8 mph SW9.3 kmh SW 9.0 mph14.5 kmh 30.05 in1017.6 mb - 0.00 in0.0 mm 0.00 in0.0 mm
05:15 PM 64.3°F17.9°C 53.9°F12.2°C 69% 6.1 mph SW9.8 kmh SW 8.0 mph12.9 kmh 30.05 in1017.6 mb - 0.00 in0.0 mm 0.00 in0.0 mm
05:30 PM 63.8°F17.7°C 54.2°F12.3°C 71% 6.2 mph SW10.0 kmh SW 9.0 mph14.5 kmh 30.05 in1017.6 mb - 0.00 in0.0 mm 0.00 in0.0 mm
05:45 PM 62.8°F17.1°C 54.0°F12.2°C 73% 5.5 mph SSW8.9 kmh SSW 8.0 mph12.9 kmh 30.04 in1017.3 mb - 0.00 in0.0 mm 0.00 in0.0 mm
06:00 PM 62.4°F16.9°C 54.0°F12.2°C 74% 5.1 mph SSW8.2 kmh SSW 9.0 mph14.5 kmh 30.04 in1017.3 mb - 0.00 in0.0 mm 0.00 in0.0 mm
06:15 PM 62.2°F16.8°C 54.2°F12.3°C 75% 4.1 mph SSW6.6 kmh SSW 6.0 mph9.7 kmh 30.04 in1017.3 mb - 0.00 in0.0 mm 0.00 in0.0 mm
06:30 PM 62.0°F16.7°C 54.3°F12.4°C 76% 5.0 mph SW8.0 kmh SW 8.0 mph12.9 kmh 30.04 in1017.3 mb - 0.00 in0.0 mm 0.00 in0.0 mm
06:45 PM 62.1°F16.7°C 54.8°F12.7°C 77% 4.0 mph WSW6.4 kmh WSW 6.0 mph9.7 kmh 30.04 in1017.3 mb - 0.00 in0.0 mm 0.00 in0.0 mm
07:00 PM 61.7°F16.5°C 54.8°F12.7°C 78% 3.7 mph SW6.0 kmh SW 7.0 mph11.3 kmh 30.04 in1017.3 mb - 0.00 in0.0 mm 0.00 in0.0 mm
07:15 PM 61.0°F16.1°C 54.8°F12.7°C 80% 4.5 mph SSW7.2 kmh SSW 7.0 mph11.3 kmh 30.04 in1017.3 mb - 0.00 in0.0 mm 0.00 in0.0 mm
07:30 PM 60.4°F15.8°C 54.9°F12.7°C 82% 3.0 mph SW4.8 kmh SW 5.0 mph8.0 kmh 30.03 in1016.9 mb - 0.00 in0.0 mm 0.00 in0.0 mm
07:45 PM 59.9°F15.5°C 54.7°F12.6°C 83% 5.2 mph SW8.4 kmh SW 8.0 mph12.9 kmh 30.04 in1017.3 mb - 0.00 in0.0 mm 0.00 in0.0 mm
08:00 PM 58.9°F14.9°C 54.1°F12.3°C 84% 8.1 mph WSW13.0 kmh WSW 13.0 mph20.9 kmh 30.04 in1017.3 mb - 0.00 in0.0 mm 0.00 in0.0 mm
08:15 PM 58.2°F14.6°C 54.0°F12.2°C 86% 2.9 mph SW4.7 kmh SW 8.0 mph12.9 kmh 30.03 in1016.9 mb - 0.00 in0.0 mm 0.00 in0.0 mm
08:30 PM 57.8°F14.3°C 54.0°F12.2°C 87% 2.8 mph SW4.5 kmh SW 9.0 mph14.5 kmh 30.03 in1016.9 mb - 0.00 in0.0 mm 0.00 in0.0 mm
08:45 PM 57.5°F14.2°C 54.0°F12.2°C 88% 4.4 mph SW7.1 kmh SW 8.0 mph12.9 kmh 30.03 in1016.9 mb - 0.00 in0.0 mm 0.00 in0.0 mm
09:00 PM 57.3°F14.1°C 54.1°F12.3°C 89% 3.1 mph WSW5.0 kmh WSW 4.0 mph6.4 kmh 30.03 in1016.9 mb - 0.00 in0.0 mm 0.00 in0.0 mm
09:15 PM 57.3°F14.1°C 54.4°F12.4°C 90% 4.4 mph SW7.1 kmh SW 6.0 mph9.7 kmh 30.02 in1016.6 mb - 0.00 in0.0 mm 0.00 in0.0 mm
09:30 PM 57.3°F14.1°C 54.4°F12.4°C 90% 4.9 mph SSW7.9 kmh SSW 6.0 mph9.7 kmh 30.02 in1016.6 mb - 0.00 in0.0 mm 0.00 in0.0 mm
09:45 PM 57.4°F14.1°C 54.8°F12.7°C 91% 3.6 mph SW5.8 kmh SW 6.0 mph9.7 kmh 30.02 in1016.6 mb - 0.00 in0.0 mm 0.00 in0.0 mm
10:00 PM 57.4°F14.1°C 54.8°F12.7°C 91% 3.5 mph WSW5.6 kmh WSW 5.0 mph8.0 kmh 30.02 in1016.6 mb - 0.00 in0.0 mm 0.00 in0.0 mm
10:15 PM 57.5°F14.2°C 55.2°F12.9°C 92% 4.4 mph SSW7.1 kmh SSW 7.0 mph11.3 kmh 30.01 in1016.3 mb - 0.00 in0.0 mm 0.00 in0.0 mm
10:30 PM 57.6°F14.2°C 55.3°F12.9°C 92% 8.1 mph SSW13.0 kmh SSW 10.0 mph16.1 kmh 30.00 in1015.9 mb - 0.00 in0.0 mm 0.00 in0.0 mm
10:45 PM 57.6°F14.2°C 55.3°F12.9°C 92% 5.4 mph SW8.7 kmh SW 8.0 mph12.9 kmh 30.00 in1015.9 mb - 0.00 in0.0 mm 0.00 in0.0 mm
11:00 PM 57.6°F14.2°C 55.3°F12.9°C 92% 6.1 mph SSW9.8 kmh SSW 10.0 mph16.1 kmh 30.00 in1015.9 mb - 0.00 in0.0 mm 0.00 in0.0 mm
11:15 PM 57.5°F14.2°C 55.2°F12.9°C 92% 6.0 mph SSW9.7 kmh SSW 13.0 mph20.9 kmh 29.99 in1015.6 mb - 0.00 in0.0 mm 0.00 in0.0 mm
11:30 PM 57.5°F14.2°C 55.2°F12.9°C 92% 3.5 mph SW5.6 kmh SW 6.0 mph9.7 kmh 29.99 in1015.6 mb - 0.00 in0.0 mm 0.00 in0.0 mm
11:45 PM 57.5°F14.2°C 55.2°F12.9°C 92% 4.2 mph SW6.8 kmh SW 11.0 mph17.7 kmh 29.98 in1015.2 mb - 0.00 in0.0 mm 0.00 in0.0 mm